createdAt,value
2022-12-26T00:01:45.145Z,10.62
2022-12-26T00:04:55.311Z,10.60
2022-12-26T00:08:08.165Z,10.57
2022-12-26T00:11:19.143Z,10.60
2022-12-26T00:14:29.468Z,10.68
2022-12-26T00:17:39.523Z,10.71
2022-12-26T00:20:50.036Z,10.73
2022-12-26T00:24:02.338Z,10.72
2022-12-26T00:27:12.356Z,10.68
2022-12-26T00:30:22.448Z,10.71
2022-12-26T00:33:32.521Z,10.72
2022-12-26T00:36:42.860Z,10.77
2022-12-26T00:39:54.111Z,10.72
2022-12-26T00:43:04.140Z,10.68
2022-12-26T00:46:14.521Z,10.70
2022-12-26T00:49:25.403Z,10.72
2022-12-26T00:52:35.342Z,10.71
2022-12-26T00:55:46.955Z,10.72
2022-12-26T00:58:56.939Z,10.77
2022-12-26T01:02:27.113Z,10.79
2022-12-26T01:05:37.209Z,10.74
2022-12-26T04:02:05.051Z,10.49
2022-12-26T04:05:28.335Z,10.40
2022-12-26T04:09:00.588Z,10.35
2022-12-26T04:12:29.313Z,10.34
2022-12-26T04:15:57.109Z,10.41
2022-12-26T04:19:25.662Z,10.32
2022-12-26T04:22:52.408Z,10.37
2022-12-26T04:26:19.881Z,10.38
2022-12-26T04:29:41.274Z,10.45
2022-12-26T04:33:07.570Z,10.47
2022-12-26T04:36:37.878Z,10.51
2022-12-26T04:40:03.325Z,10.55
2022-12-26T04:43:48.671Z,10.55
2022-12-26T04:46:57.047Z,10.52
2022-12-26T04:50:13.042Z,10.51
2022-12-26T04:53:24.285Z,10.62
2022-12-26T04:56:34.477Z,10.64
2022-12-26T04:59:44.217Z,10.68
2022-12-26T05:03:04.935Z,10.71
2022-12-26T05:06:28.799Z,10.74
2022-12-26T05:09:39.868Z,10.86
2022-12-26T05:12:50.094Z,10.88
2022-12-26T05:16:13.817Z,10.92
2022-12-26T05:19:34.565Z,11.01
2022-12-26T05:22:57.546Z,11.03
2022-12-26T05:26:27.310Z,11.08
2022-12-26T05:29:37.171Z,11.08
2022-12-26T05:32:57.857Z,11.01
2022-12-26T05:36:07.873Z,10.92
2022-12-26T05:39:17.637Z,10.92
2022-12-26T05:42:28.974Z,10.89
2022-12-26T05:45:38.664Z,10.94
2022-12-26T05:48:48.337Z,11.01
2022-12-26T05:51:58.207Z,11.05
2022-12-26T05:55:08.133Z,10.95
2022-12-26T05:58:19.203Z,10.92
2022-12-26T08:32:19.209Z,10.72
2022-12-26T08:35:30.192Z,10.71
2022-12-26T08:38:40.939Z,10.79
2022-12-26T08:41:50.674Z,10.77
2022-12-26T08:45:00.348Z,10.68
2022-12-26T08:48:11.257Z,10.70
2022-12-26T08:51:23.014Z,10.66
2022-12-26T08:54:32.896Z,10.72
2022-12-26T08:57:42.652Z,10.76
2022-12-26T09:00:55.485Z,10.77
2022-12-26T09:04:07.688Z,10.78
2022-12-26T09:07:17.631Z,10.79
2022-12-26T09:10:27.341Z,10.79
2022-12-26T09:13:37.754Z,10.79
2022-12-26T09:16:50.820Z,10.79
2022-12-26T09:20:02.246Z,10.80
2022-12-26T09:23:11.981Z,10.88
2022-12-26T09:26:21.644Z,10.89
2022-12-26T09:29:31.332Z,10.95
2022-12-26T09:32:41.198Z,11.04
2022-12-26T09:35:52.503Z,11.08
2022-12-26T09:39:02.586Z,11.17
2022-12-26T09:42:22.102Z,11.14
2022-12-26T09:45:46.542Z,11.20
2022-12-26T09:49:00.852Z,11.36
2022-12-26T09:52:16.871Z,11.30
2022-12-26T09:55:36.917Z,11.38
2022-12-26T09:58:50.125Z,11.37
2022-12-26T10:01:59.974Z,11.43
2022-12-26T10:05:14.216Z,11.56
2022-12-26T10:08:34.236Z,11.52
2022-12-26T10:11:58.476Z,11.74
2022-12-26T10:15:26.413Z,11.70
2022-12-26T10:18:41.074Z,11.73
2022-12-26T10:22:01.914Z,11.66
2022-12-26T10:25:19.538Z,11.72
2022-12-26T10:28:34.528Z,11.83
2022-12-26T10:31:49.232Z,11.94
2022-12-26T10:35:00.342Z,11.88
2022-12-26T10:38:18.721Z,11.88
2022-12-26T10:41:38.980Z,11.91
2022-12-26T10:44:48.704Z,11.91
2022-12-26T10:47:58.489Z,11.69
2022-12-26T10:51:09.529Z,11.74
2022-12-26T10:54:20.186Z,11.78
2022-12-26T10:57:36.075Z,11.97
2022-12-26T11:00:45.826Z,12.06
2022-12-26T11:03:57.040Z,12.13
2022-12-26T11:07:12.094Z,12.10
2022-12-26T11:10:23.725Z,12.29
2022-12-26T11:13:40.065Z,12.32
2022-12-26T11:16:50.418Z,12.38
2022-12-26T11:20:23.753Z,12.50
2022-12-26T11:23:33.599Z,12.47
2022-12-26T11:26:43.287Z,12.31
2022-12-26T11:30:16.276Z,12.30
2022-12-26T11:33:29.737Z,12.25
2022-12-26T11:36:46.308Z,12.34
2022-12-26T11:39:58.631Z,12.37
2022-12-26T11:43:18.977Z,12.27
2022-12-26T11:46:37.241Z,12.37
2022-12-26T11:49:55.356Z,12.31
2022-12-26T11:53:08.075Z,12.47
2022-12-26T11:56:27.135Z,12.54
2022-12-26T11:59:36.963Z,12.52
2022-12-26T12:02:48.400Z,12.31
2022-12-26T12:06:03.979Z,12.42
2022-12-26T12:09:22.760Z,12.45
2022-12-26T12:12:40.391Z,12.34
2022-12-26T12:15:58.736Z,12.33
2022-12-26T12:19:22.494Z,12.49
2022-12-26T12:22:46.327Z,12.41
2022-12-26T12:26:08.317Z,12.26
2022-12-26T12:29:32.270Z,12.12
2022-12-26T12:32:57.293Z,11.97
2022-12-26T12:36:11.419Z,11.94
2022-12-26T12:39:29.427Z,12.02
2022-12-26T12:42:49.857Z,11.97
2022-12-26T12:46:09.419Z,11.94
2022-12-26T12:49:36.351Z,12.15
2022-12-26T12:52:56.438Z,12.14
2022-12-26T12:56:19.432Z,12.06
2022-12-26T12:59:37.272Z,11.97
2022-12-26T13:02:54.619Z,11.90
2022-12-26T13:06:10.239Z,11.99
2022-12-26T13:09:25.356Z,12.03
2022-12-26T13:12:48.516Z,11.95
2022-12-26T13:16:04.172Z,11.83
2022-12-26T13:19:20.019Z,11.77
2022-12-26T13:22:54.362Z,11.74
2022-12-26T13:26:10.428Z,11.72
2022-12-26T13:29:33.451Z,11.68
2022-12-26T13:32:46.767Z,11.68
2022-12-26T13:35:58.760Z,11.70
2022-12-26T13:39:32.857Z,11.70
2022-12-26T13:42:59.310Z,11.76
2022-12-26T13:46:36.613Z,11.74
2022-12-26T13:49:46.283Z,11.77
2022-12-26T13:52:56.430Z,11.83
2022-12-26T13:56:45.886Z,11.81
2022-12-26T14:00:16.927Z,11.80
2022-12-26T14:03:45.172Z,11.74
2022-12-26T14:07:11.036Z,11.66
2022-12-26T14:10:29.787Z,11.66
2022-12-26T14:14:01.819Z,11.73
2022-12-26T14:17:24.412Z,11.59
2022-12-26T14:20:42.956Z,11.57
2022-12-26T14:24:00.487Z,11.45
2022-12-26T14:27:26.515Z,11.32
2022-12-26T14:30:50.693Z,11.33
2022-12-26T14:34:13.891Z,11.33
2022-12-26T14:37:37.568Z,11.32
2022-12-26T14:41:00.622Z,11.36
2022-12-26T14:44:15.967Z,11.29
2022-12-26T14:47:38.948Z,11.24
2022-12-26T14:50:50.790Z,11.25
2022-12-26T14:54:29.543Z,11.22
2022-12-26T14:57:45.813Z,11.08
2022-12-26T15:00:56.996Z,11.19
2022-12-26T15:04:16.639Z,11.21
2022-12-26T15:07:55.787Z,11.23
2022-12-26T15:11:29.885Z,11.21
2022-12-26T15:15:05.029Z,11.09
2022-12-26T15:18:43.089Z,11.11
2022-12-26T15:22:09.845Z,11.08
2022-12-26T15:25:47.795Z,11.03
2022-12-26T15:29:18.750Z,11.05
2022-12-26T15:32:37.298Z,11.06
2022-12-26T15:35:56.758Z,11.02
2022-12-26T15:39:23.130Z,10.94
2022-12-26T15:42:46.266Z,10.86
2022-12-26T15:46:09.210Z,10.94
2022-12-26T15:49:34.458Z,10.90
2022-12-26T15:52:52.364Z,10.78
2022-12-26T15:56:23.174Z,10.80
2022-12-26T15:59:49.669Z,10.76
2022-12-26T16:03:15.350Z,10.66
2022-12-26T16:06:40.346Z,10.60
2022-12-26T16:09:54.997Z,10.54
2022-12-26T16:13:17.827Z,10.61
2022-12-26T16:16:31.376Z,10.56
2022-12-26T16:19:44.281Z,10.53
2022-12-26T16:22:53.482Z,10.45
2022-12-26T16:26:03.570Z,10.42
2022-12-26T16:29:18.544Z,10.32
2022-12-26T16:32:31.799Z,9.83
2022-12-26T16:35:44.500Z,9.57
2022-12-26T16:38:55.626Z,9.36
2022-12-26T16:42:08.231Z,9.12
2022-12-26T16:45:20.667Z,9.05
2022-12-26T16:48:34.339Z,8.99
2022-12-26T16:51:50.684Z,8.81
2022-12-26T16:55:26.333Z,8.55
2022-12-26T16:58:37.985Z,8.53
2022-12-26T17:01:51.169Z,8.32
2022-12-26T17:05:04.848Z,8.30
2022-12-26T17:08:16.267Z,8.27
2022-12-26T17:11:30.383Z,8.25
2022-12-26T17:14:43.241Z,8.28
2022-12-26T17:17:53.231Z,8.16
2022-12-26T17:21:18.149Z,8.00
2022-12-26T17:24:29.138Z,8.04
2022-12-26T17:27:38.972Z,8.07
2022-12-26T17:30:50.808Z,8.01
2022-12-26T17:34:09.060Z,7.97
2022-12-26T17:37:24.929Z,8.04
2022-12-26T17:40:37.886Z,7.99
2022-12-26T17:43:48.253Z,7.93
2022-12-26T17:46:58.789Z,7.91
2022-12-26T17:50:08.762Z,7.85
2022-12-26T17:53:26.033Z,7.83
2022-12-26T17:56:37.001Z,7.74
2022-12-26T17:59:46.781Z,7.77
2022-12-26T18:02:57.001Z,7.78
2022-12-26T18:06:07.278Z,7.91
2022-12-26T18:09:26.148Z,7.89
2022-12-26T18:12:37.085Z,7.92
2022-12-26T18:15:47.259Z,7.95
2022-12-26T18:18:57.145Z,7.97
2022-12-26T18:22:12.168Z,7.93
2022-12-26T18:25:24.650Z,7.84
2022-12-26T18:28:36.187Z,7.85
2022-12-26T18:31:46.259Z,7.80
2022-12-26T18:34:56.550Z,7.75
2022-12-26T18:38:06.447Z,7.71
2022-12-26T18:41:17.936Z,7.66
2022-12-26T18:44:28.940Z,7.65
2022-12-26T18:47:38.570Z,7.64
2022-12-26T18:50:50.033Z,7.67
2022-12-26T18:53:59.683Z,7.60
2022-12-26T18:57:20.784Z,7.53
2022-12-26T19:00:32.332Z,7.56
2022-12-26T19:03:42.642Z,7.64
2022-12-26T19:06:53.314Z,7.69
2022-12-26T19:10:03.023Z,7.73
2022-12-26T19:13:12.692Z,7.76
2022-12-26T19:16:24.160Z,7.77
2022-12-26T19:19:33.938Z,7.80
2022-12-26T19:22:43.797Z,7.87
2022-12-26T19:25:53.444Z,7.87
2022-12-26T19:29:03.073Z,7.93
2022-12-26T19:32:14.071Z,7.93
2022-12-26T19:35:23.852Z,7.91
2022-12-26T19:38:34.027Z,7.85
2022-12-26T19:41:43.724Z,7.72
2022-12-26T19:44:53.463Z,7.77
2022-12-26T19:48:04.662Z,7.77
2022-12-26T19:51:16.214Z,7.58
2022-12-26T19:54:25.882Z,7.50
2022-12-26T19:57:36.140Z,7.50
2022-12-26T20:00:45.899Z,7.46
2022-12-26T20:03:58.278Z,7.41
2022-12-26T20:07:07.957Z,7.40
2022-12-26T20:10:17.691Z,7.10
2022-12-26T20:13:27.414Z,7.03
2022-12-26T20:17:04.565Z,6.80
2022-12-26T20:20:08.761Z,6.73
2022-12-26T20:23:18.456Z,6.61
2022-12-26T20:26:29.151Z,6.47
2022-12-26T20:29:39.397Z,6.45
2022-12-26T20:32:49.095Z,6.41
